createdAt,value
2022-10-30T00:00:01.102Z,43.7
2022-10-30T00:01:03.657Z,43.6
2022-10-30T00:02:01.489Z,43.5
2022-10-30T00:03:01.741Z,43.2
2022-10-30T00:04:01.187Z,43
2022-10-30T00:05:01.143Z,43
2022-10-30T00:06:05.676Z,43.1
2022-10-30T00:07:01.270Z,42.7
2022-10-30T00:08:02.206Z,41.8
2022-10-30T00:09:02.087Z,41
2022-10-30T00:10:01.796Z,39.9
2022-10-30T00:11:09.099Z,40.2
2022-10-30T00:12:01.081Z,40.4
2022-10-30T00:13:01.193Z,40.3
2022-10-30T00:14:01.096Z,40.3
2022-10-30T00:15:01.799Z,40.2
2022-10-30T00:16:11.016Z,40.2
2022-10-30T00:17:01.932Z,40.1
2022-10-30T00:18:01.264Z,40.3
2022-10-30T00:19:01.047Z,40.2
2022-10-30T00:20:01.130Z,40.2
2022-10-30T00:21:13.974Z,40
2022-10-30T00:23:01.428Z,39.5
2022-10-30T00:24:01.103Z,39.2
2022-10-30T00:25:01.080Z,38.6
2022-10-30T00:26:16.217Z,38.4
2022-10-30T00:27:02.091Z,38.5
2022-10-30T00:28:01.088Z,38.5
2022-10-30T00:29:01.201Z,38.5
2022-10-30T00:30:01.075Z,38.2
2022-10-30T00:31:01.311Z,37.8
2022-10-30T00:32:02.018Z,37.8
2022-10-30T00:33:01.920Z,37.3
2022-10-30T00:34:03.024Z,37.3
2022-10-30T00:35:01.787Z,37.1
2022-10-30T00:36:01.461Z,37
2022-10-30T00:37:01.351Z,36.8
2022-10-30T00:38:02.444Z,36.9
2022-10-30T00:39:01.950Z,37.2
2022-10-30T00:40:01.164Z,37.2
2022-10-30T00:41:01.066Z,37.5
2022-10-30T00:42:01.202Z,37.8
2022-10-30T00:43:01.116Z,38
2022-10-30T00:44:01.332Z,38.3
2022-10-30T00:45:01.430Z,38.3
2022-10-30T00:46:01.065Z,38.5
2022-10-30T00:47:01.108Z,38.8
2022-10-30T00:48:01.711Z,39.1
2022-10-30T00:49:01.796Z,38.9
2022-10-30T00:50:01.137Z,38.6
2022-10-30T00:51:01.117Z,38.3
2022-10-30T00:52:01.216Z,38.2
2022-10-30T00:53:01.699Z,38.2
2022-10-30T00:54:01.236Z,38
2022-10-30T00:55:01.149Z,38
2022-10-30T00:56:01.175Z,37.8
2022-10-30T00:57:01.639Z,37.6
2022-10-30T00:58:01.074Z,37.2
2022-10-30T00:59:01.767Z,37
2022-10-30T01:00:00.659Z,36.7
2022-10-30T01:01:00.301Z,36.6
2022-10-30T01:02:00.062Z,36.7
2022-10-30T01:03:00.531Z,36.8
2022-10-30T01:04:00.344Z,36.8
2022-10-30T01:05:00.018Z,36.9
2022-10-30T01:06:00.142Z,36.7
2022-10-30T01:06:59.789Z,36.6
2022-10-30T01:08:01.742Z,36.6
2022-10-30T01:09:02.868Z,36.6
2022-10-30T01:10:00.828Z,36.6
2022-10-30T01:11:00.555Z,36.4
2022-10-30T01:12:00.444Z,36.4
2022-10-30T01:13:00.008Z,36.5
2022-10-30T01:14:00.781Z,36.9
2022-10-30T01:15:00.491Z,37.6
2022-10-30T01:16:00.168Z,38.4
2022-10-30T01:17:00.274Z,39.1
2022-10-30T01:18:00.269Z,39.1
2022-10-30T01:19:00.145Z,39.1
2022-10-30T01:19:59.772Z,39.4
2022-10-30T01:21:01.687Z,39.5
2022-10-30T01:21:59.895Z,39.2
2022-10-30T01:23:00.130Z,39.1
2022-10-30T01:24:00.006Z,39.1
2022-10-30T01:24:59.695Z,38.6
2022-10-30T01:26:01.345Z,38.3
2022-10-30T01:27:00.735Z,38.1
2022-10-30T01:28:00.433Z,38.1
2022-10-30T01:29:00.131Z,38.4
2022-10-30T01:29:59.720Z,38.7
2022-10-30T01:31:01.489Z,38.7
2022-10-30T01:32:00.784Z,39
2022-10-30T01:33:00.631Z,39.5
2022-10-30T01:34:00.530Z,39.9
2022-10-30T01:35:00.642Z,40
2022-10-30T01:36:00.281Z,40.2
2022-10-30T01:36:59.881Z,40.1
2022-10-30T01:37:59.808Z,40.3
2022-10-30T01:38:59.517Z,40.4
2022-10-30T01:40:01.167Z,40.8
2022-10-30T01:41:00.830Z,41.5
2022-10-30T01:42:00.437Z,41.8
2022-10-30T01:43:00.068Z,42.4
2022-10-30T01:43:59.746Z,42.7
2022-10-30T01:45:01.389Z,42.7
2022-10-30T01:46:01.126Z,42.9
2022-10-30T01:47:01.791Z,43.3
2022-10-30T01:48:01.055Z,43.5
2022-10-30T01:49:00.973Z,43.7
2022-10-30T01:50:00.577Z,43.6
2022-10-30T01:51:00.168Z,43.7
2022-10-30T01:52:04.089Z,43.7
2022-10-30T01:53:01.136Z,44.1
2022-10-30T01:54:01.006Z,44.5
2022-10-30T01:55:00.606Z,44.6
2022-10-30T01:56:00.199Z,44.7
2022-10-30T01:57:05.874Z,44.7
2022-10-30T01:58:01.345Z,44.9
2022-10-30T01:59:00.928Z,45.2
2022-10-30T02:00:01.051Z,45
2022-10-30T02:01:01.097Z,45.1
2022-10-30T02:02:08.669Z,44.9
2022-10-30T02:03:01.689Z,44.7
2022-10-30T02:04:01.372Z,44.7
2022-10-30T02:05:01.081Z,44.4
2022-10-30T02:06:01.099Z,44.1
2022-10-30T02:07:11.072Z,43.8
2022-10-30T02:08:02.016Z,43.6
2022-10-30T02:09:01.189Z,43.3
2022-10-30T02:10:01.262Z,43.3
2022-10-30T02:11:02.086Z,42.9
2022-10-30T02:12:13.236Z,42.5
2022-10-30T02:13:01.147Z,42.1
2022-10-30T02:14:01.949Z,42
2022-10-30T02:15:01.164Z,42.1
2022-10-30T02:16:01.325Z,42
2022-10-30T02:17:15.612Z,41.8
2022-10-30T02:18:01.838Z,41.8
2022-10-30T02:19:01.475Z,41.8
2022-10-30T02:20:02.083Z,41.9
2022-10-30T02:21:01.475Z,41.9
2022-10-30T02:22:25.312Z,42
2022-10-30T02:23:17.813Z,41.6
2022-10-30T02:24:03.556Z,41.5
2022-10-30T02:25:01.052Z,41.3
2022-10-30T02:26:01.133Z,41.3
2022-10-30T02:27:01.379Z,41.4
2022-10-30T02:28:01.171Z,41.7
2022-10-30T02:29:00.895Z,41.5
2022-10-30T02:30:01.160Z,41.5
2022-10-30T02:31:01.160Z,41.6
2022-10-30T02:32:01.063Z,41.7
2022-10-30T02:33:01.801Z,41.9
2022-10-30T02:34:02.215Z,41.7
2022-10-30T02:35:01.076Z,41.8
2022-10-30T02:36:01.076Z,42.1
2022-10-30T02:37:01.106Z,42.3
2022-10-30T02:38:01.388Z,42.5
2022-10-30T02:39:01.107Z,42.6
2022-10-30T02:40:01.317Z,42.8
2022-10-30T02:41:01.274Z,42.8
2022-10-30T02:42:01.291Z,42.7
2022-10-30T02:43:01.171Z,42.8
2022-10-30T02:44:02.100Z,42.8
2022-10-30T02:45:01.159Z,42.7
2022-10-30T02:46:01.153Z,42.7
2022-10-30T02:47:01.796Z,42.6
2022-10-30T02:48:02.587Z,42.6
2022-10-30T02:49:01.750Z,42.8
2022-10-30T02:50:01.106Z,42.6
2022-10-30T02:51:01.482Z,42.4
2022-10-30T02:52:02.196Z,42.6
2022-10-30T02:53:02.190Z,42.5
2022-10-30T02:54:02.698Z,42.4
2022-10-30T02:55:02.190Z,42.2
2022-10-30T02:56:02.431Z,42.2
2022-10-30T02:57:01.116Z,42.2
2022-10-30T02:58:01.204Z,42
2022-10-30T02:59:01.144Z,42.1
2022-10-30T03:00:01.144Z,41.7
2022-10-30T03:01:01.531Z,41.5
2022-10-30T03:02:01.280Z,41.3
2022-10-30T03:03:01.226Z,41.3
2022-10-30T03:04:02.704Z,41.4
2022-10-30T03:05:02.421Z,41.1
2022-10-30T03:06:01.080Z,41.2
2022-10-30T03:07:01.088Z,41.1
2022-10-30T03:08:01.566Z,41.4
2022-10-30T03:09:00.675Z,41.4
2022-10-30T03:10:00.299Z,41.3
2022-10-30T03:11:00.171Z,41.1
2022-10-30T03:11:59.924Z,41.3
2022-10-30T03:12:59.606Z,41.3
2022-10-30T03:14:01.596Z,41.1
2022-10-30T03:15:01.184Z,41
2022-10-30T03:16:01.908Z,40.9
2022-10-30T03:17:01.136Z,40.8
2022-10-30T03:18:01.314Z,40.8
2022-10-30T03:19:02.496Z,40.8
2022-10-30T03:20:02.415Z,40.9
2022-10-30T03:21:01.108Z,40.8
2022-10-30T03:22:01.075Z,40.9
2022-10-30T03:23:01.100Z,40.9
2022-10-30T03:24:01.450Z,40.7
2022-10-30T03:25:01.089Z,40.7
2022-10-30T03:26:01.093Z,40.7
2022-10-30T03:27:01.108Z,40.8
2022-10-30T03:28:01.629Z,40.8
2022-10-30T03:29:01.447Z,41
2022-10-30T03:30:01.762Z,40.7
2022-10-30T03:31:01.201Z,40.7
2022-10-30T03:32:01.631Z,40.6
2022-10-30T03:33:01.264Z,40.7
2022-10-30T03:34:00.658Z,40.5
2022-10-30T03:35:00.341Z,40.7
2022-10-30T03:36:00.157Z,40.6
2022-10-30T03:36:59.835Z,40.6
2022-10-30T03:38:02.281Z,40.5
2022-10-30T03:39:01.497Z,40.4
2022-10-30T03:40:01.950Z,40.4
2022-10-30T03:41:01.106Z,40.6
2022-10-30T03:42:01.095Z,40.4
2022-10-30T03:43:01.300Z,40.3
2022-10-30T03:44:01.107Z,40.5
2022-10-30T03:45:01.463Z,40.7
2022-10-30T03:46:01.450Z,40.6
2022-10-30T03:47:02.528Z,40.6
2022-10-30T03:48:02.668Z,40.7
2022-10-30T03:49:01.133Z,40.8
2022-10-30T03:50:01.148Z,40.8
2022-10-30T03:51:01.175Z,40.8
2022-10-30T03:52:01.154Z,40.8
2022-10-30T03:53:04.756Z,41.1
2022-10-30T03:54:01.593Z,41.2
2022-10-30T03:55:01.630Z,41.1
2022-10-30T03:56:01.730Z,41.1
2022-10-30T03:57:01.101Z,41.1
2022-10-30T03:58:08.445Z,41.1
2022-10-30T03:59:01.124Z,41.3
2022-10-30T04:00:01.119Z,41
2022-10-30T04:01:01.938Z,40.9
2022-10-30T04:02:01.653Z,40.7
2022-10-30T04:03:10.518Z,40.5
2022-10-30T04:04:01.426Z,40.3
2022-10-30T04:05:01.327Z,40.1
2022-10-30T04:06:01.528Z,40.4
2022-10-30T04:07:01.153Z,40.2
2022-10-30T04:08:08.142Z,40.4
2022-10-30T04:09:01.104Z,40.4
2022-10-30T04:10:01.076Z,40.4
2022-10-30T04:11:01.188Z,40.6
2022-10-30T04:12:01.093Z,40.6
2022-10-30T04:13:15.571Z,40.7
2022-10-30T04:14:01.329Z,40.8
2022-10-30T04:15:01.227Z,40.8
2022-10-30T04:16:01.445Z,40.8
2022-10-30T04:17:02.044Z,40.8
2022-10-30T04:18:01.718Z,40.9
2022-10-30T04:19:01.142Z,40.9
2022-10-30T04:20:01.320Z,40.9
2022-10-30T04:21:01.153Z,40.8
2022-10-30T04:22:01.150Z,40.6
2022-10-30T04:23:01.065Z,40.6
2022-10-30T04:24:01.072Z,40.4
2022-10-30T04:25:01.182Z,40.2
2022-10-30T04:26:01.351Z,40.1
2022-10-30T04:27:01.564Z,40
2022-10-30T04:28:01.477Z,40.2
2022-10-30T04:29:01.757Z,40.2
2022-10-30T04:30:01.982Z,40.2
2022-10-30T04:31:01.805Z,40.3
2022-10-30T04:32:01.248Z,40.1
2022-10-30T04:33:02.455Z,40.1
2022-10-30T04:34:02.569Z,40.1
2022-10-30T04:35:01.439Z,40.1
2022-10-30T04:36:02.152Z,40.1
2022-10-30T04:37:01.512Z,40.1
2022-10-30T04:38:01.197Z,40.3
2022-10-30T04:39:02.455Z,40.2
2022-10-30T04:40:01.803Z,40.2
2022-10-30T04:41:01.080Z,40.2
2022-10-30T04:42:01.077Z,40.2
2022-10-30T04:43:01.385Z,40.2
2022-10-30T04:44:00.878Z,40.1
2022-10-30T04:45:04.837Z,40.2
2022-10-30T04:46:01.313Z,40.3
2022-10-30T04:47:01.117Z,40.2
2022-10-30T04:48:01.503Z,40.2
2022-10-30T04:49:01.143Z,40.4
2022-10-30T04:50:01.529Z,40.5
2022-10-30T04:51:01.236Z,40.5
2022-10-30T04:52:01.128Z,40.3
2022-10-30T04:53:01.152Z,40.4
2022-10-30T04:54:01.981Z,40.4
2022-10-30T04:55:01.332Z,40.5
2022-10-30T04:56:01.077Z,40.4
2022-10-30T04:57:01.083Z,40.5
2022-10-30T04:58:01.516Z,40.5
2022-10-30T04:59:01.575Z,40.7
2022-10-30T05:00:01.185Z,40.7
2022-10-30T05:01:03.338Z,41.1
2022-10-30T05:02:01.245Z,41.5
2022-10-30T05:03:01.074Z,41.6
2022-10-30T05:04:01.133Z,41.5
2022-10-30T05:05:01.045Z,41.5
2022-10-30T05:06:01.204Z,41.6
2022-10-30T05:07:01.136Z,41.9
2022-10-30T05:08:01.740Z,41.8
2022-10-30T05:09:01.540Z,41.9
2022-10-30T05:10:01.624Z,41.9
2022-10-30T05:11:01.754Z,41.9
2022-10-30T05:12:01.077Z,41.8
2022-10-30T05:13:01.895Z,41.8
2022-10-30T05:14:01.406Z,41.7
2022-10-30T05:15:01.135Z,41.9
2022-10-30T05:16:01.111Z,41.8
2022-10-30T05:17:01.105Z,41.7
2022-10-30T05:18:01.864Z,41.7
2022-10-30T05:19:01.109Z,41.7
2022-10-30T05:20:01.544Z,41.5
2022-10-30T05:21:01.136Z,41.5
2022-10-30T05:22:01.127Z,41.2
2022-10-30T05:23:03.073Z,40.9
2022-10-30T05:24:01.250Z,40.8
2022-10-30T05:25:01.552Z,40.7
2022-10-30T05:26:01.166Z,40.6
2022-10-30T05:27:01.161Z,40.8
2022-10-30T05:28:01.817Z,40.9
2022-10-30T05:29:01.308Z,41.1
2022-10-30T05:30:01.951Z,41.2
2022-10-30T05:31:01.537Z,41.4
2022-10-30T05:32:01.428Z,41.5
2022-10-30T05:33:01.472Z,41.5
2022-10-30T05:34:07.204Z,41.7
2022-10-30T05:35:01.916Z,41.7
2022-10-30T05:36:02.444Z,41.4
2022-10-30T05:37:01.142Z,41.5
2022-10-30T05:38:01.394Z,42
2022-10-30T05:39:06.892Z,42
2022-10-30T05:40:01.026Z,42.2
2022-10-30T05:41:01.780Z,42.6
2022-10-30T05:42:01.294Z,43.1
2022-10-30T05:43:02.232Z,43.3
2022-10-30T05:44:10.826Z,43.7
2022-10-30T05:45:02.438Z,44
2022-10-30T05:46:04.387Z,44
2022-10-30T05:47:01.139Z,44.1
2022-10-30T05:48:02.521Z,43.7
2022-10-30T05:49:14.656Z,43.5
2022-10-30T05:50:01.051Z,43.3
2022-10-30T05:51:01.224Z,43
2022-10-30T05:52:01.510Z,42.7
2022-10-30T05:53:01.518Z,42.5
2022-10-30T05:54:01.242Z,42.4
2022-10-30T05:55:01.943Z,41.9
2022-10-30T05:56:02.288Z,41.7
2022-10-30T05:57:01.172Z,41.3
2022-10-30T05:58:02.263Z,40.8
2022-10-30T05:59:01.196Z,40.5
2022-10-30T06:00:00.907Z,39.9
2022-10-30T06:01:01.479Z,39.8
2022-10-30T06:02:02.306Z,39.8
2022-10-30T06:03:02.519Z,39.8
2022-10-30T06:04:01.438Z,39.7
2022-10-30T06:05:01.154Z,39.7
2022-10-30T06:06:02.192Z,39.5
2022-10-30T06:07:01.126Z,39.4
2022-10-30T06:08:01.167Z,39.2
2022-10-30T06:09:01.148Z,39.2
2022-10-30T06:10:01.293Z,39.2
2022-10-30T06:11:01.161Z,38.7
2022-10-30T06:12:01.162Z,38.5
2022-10-30T06:13:01.687Z,38.5
2022-10-30T06:14:01.192Z,38.4
2022-10-30T06:15:01.051Z,38.1
2022-10-30T06:16:01.082Z,37.9
2022-10-30T06:17:01.231Z,37.8
2022-10-30T06:18:01.833Z,37.4
2022-10-30T06:19:01.124Z,37.3
2022-10-30T06:20:00.779Z,37.2
2022-10-30T06:21:00.393Z,36.9
2022-10-30T06:22:00.092Z,36.3
2022-10-30T06:22:59.872Z,36.3
2022-10-30T06:23:59.813Z,36.1
2022-10-30T06:25:01.449Z,36.1
2022-10-30T06:26:02.849Z,36.1
2022-10-30T06:27:01.168Z,36
2022-10-30T06:28:01.720Z,35.8
2022-10-30T06:29:01.057Z,35.7
2022-10-30T06:30:01.058Z,35.7
2022-10-30T06:31:01.110Z,35.4
2022-10-30T06:32:03.957Z,35.4
2022-10-30T06:33:01.794Z,35
2022-10-30T06:34:02.524Z,35
2022-10-30T06:35:01.101Z,35
2022-10-30T06:36:01.084Z,35
2022-10-30T06:37:01.867Z,35
2022-10-30T06:38:01.440Z,35.1
2022-10-30T06:39:01.148Z,34.9
2022-10-30T06:40:00.813Z,35
2022-10-30T06:41:00.500Z,34.9
2022-10-30T06:42:00.219Z,35
2022-10-30T06:43:00.214Z,35
2022-10-30T06:44:00.140Z,34.9
2022-10-30T06:44:59.711Z,35
2022-10-30T06:46:02.088Z,35
2022-10-30T06:47:01.072Z,35.1
2022-10-30T06:48:01.591Z,34.9
2022-10-30T06:49:01.079Z,34.8
2022-10-30T06:50:01.119Z,34.8
2022-10-30T06:51:01.091Z,35.1
2022-10-30T06:52:01.089Z,35.2
2022-10-30T06:53:01.424Z,35.3
2022-10-30T06:54:01.424Z,35.2
2022-10-30T06:55:02.787Z,35.2
2022-10-30T06:56:01.060Z,35.3
2022-10-30T06:57:01.127Z,35.4
2022-10-30T06:58:01.616Z,35.3
2022-10-30T06:59:01.856Z,35.4
2022-10-30T07:00:01.861Z,35.3
2022-10-30T07:01:01.173Z,35.4
2022-10-30T07:02:02.487Z,35.4
2022-10-30T07:03:02.233Z,35.4
2022-10-30T07:04:01.458Z,35.4
2022-10-30T07:05:02.150Z,35.5
2022-10-30T07:06:01.051Z,35.5
2022-10-30T07:07:01.063Z,35.4
2022-10-30T07:08:01.113Z,36
2022-10-30T07:09:01.100Z,36.4
2022-10-30T07:10:01.102Z,36.6
2022-10-30T07:11:01.466Z,36.8
2022-10-30T07:12:06.582Z,36.9
2022-10-30T07:13:01.513Z,37
2022-10-30T07:14:02.333Z,37
2022-10-30T07:15:03.682Z,37.1
2022-10-30T07:16:02.584Z,37.3
2022-10-30T07:17:01.101Z,37.5
2022-10-30T07:18:01.684Z,37.4
2022-10-30T07:19:04.520Z,37.3
2022-10-30T07:20:05.841Z,37.5
2022-10-30T07:21:01.717Z,37.4
2022-10-30T07:22:02.103Z,37.5
2022-10-30T07:23:01.415Z,37.6
2022-10-30T07:24:01.256Z,37.6
2022-10-30T07:25:09.496Z,37.9
2022-10-30T07:26:04.243Z,38
2022-10-30T07:27:01.202Z,38
2022-10-30T07:28:01.833Z,37.9
2022-10-30T07:29:01.232Z,37.8
2022-10-30T07:30:11.876Z,38
2022-10-30T07:31:02.481Z,38.1
2022-10-30T07:32:03.692Z,38
2022-10-30T07:33:01.993Z,38
2022-10-30T07:34:01.070Z,38.2
2022-10-30T07:35:14.360Z,38.1
2022-10-30T07:36:07.881Z,38.2
2022-10-30T07:37:01.055Z,38
2022-10-30T07:38:01.103Z,37.9
2022-10-30T07:39:01.876Z,38
2022-10-30T07:40:16.116Z,38.1
2022-10-30T07:41:01.493Z,38.1
2022-10-30T07:42:01.056Z,37.9
2022-10-30T07:43:01.645Z,37.6
2022-10-30T07:44:01.214Z,37.5
2022-10-30T07:45:01.117Z,37.4
2022-10-30T07:46:01.040Z,37.5
2022-10-30T07:47:01.332Z,37.3
2022-10-30T07:48:01.663Z,36.8
2022-10-30T07:49:02.582Z,36.9
2022-10-30T07:50:01.176Z,36.9
2022-10-30T07:51:01.734Z,36.3
2022-10-30T07:52:01.128Z,35.7
2022-10-30T07:53:01.403Z,35.4
2022-10-30T07:54:01.225Z,35
2022-10-30T07:55:03.394Z,34.9
2022-10-30T07:56:02.613Z,34.3
2022-10-30T07:57:01.115Z,34.5
2022-10-30T07:58:01.710Z,34.3
2022-10-30T07:59:01.137Z,34.2
2022-10-30T08:00:04.592Z,34
2022-10-30T08:01:02.167Z,33.9
2022-10-30T08:02:01.441Z,33.9
2022-10-30T08:03:02.507Z,33.5
2022-10-30T08:04:01.175Z,32.7
2022-10-30T08:05:04.274Z,32.1
2022-10-30T08:06:02.632Z,31.8
2022-10-30T08:07:01.069Z,31.3
2022-10-30T08:08:01.913Z,31.1
2022-10-30T08:09:01.800Z,30.8
2022-10-30T08:10:00.782Z,30.8
2022-10-30T08:11:00.529Z,30.7
2022-10-30T08:12:00.307Z,30.9
2022-10-30T08:13:00.275Z,30.8
2022-10-30T08:13:59.956Z,30.7
2022-10-30T08:14:59.678Z,30.7
2022-10-30T08:16:01.439Z,30.6
2022-10-30T08:17:00.967Z,30.4
2022-10-30T08:18:01.581Z,31.1
2022-10-30T08:19:01.148Z,31.2
2022-10-30T08:20:01.157Z,30.9
2022-10-30T08:21:01.159Z,31.1
2022-10-30T08:22:01.061Z,31.2
2022-10-30T08:23:01.696Z,31.6
2022-10-30T08:24:01.073Z,31.7
2022-10-30T08:25:01.082Z,31.5
2022-10-30T08:26:01.357Z,31.4
2022-10-30T08:27:02.415Z,31.2
2022-10-30T08:28:02.244Z,31
2022-10-30T08:29:01.080Z,31
2022-10-30T08:30:01.738Z,30.6
2022-10-30T08:31:01.939Z,30.4
2022-10-30T08:32:01.371Z,30.5
2022-10-30T08:33:02.897Z,30.1
2022-10-30T08:34:01.080Z,29.6
2022-10-30T08:35:01.159Z,29.6
2022-10-30T08:36:01.583Z,29.4
2022-10-30T08:37:01.822Z,28.8
2022-10-30T08:38:02.023Z,27.9
2022-10-30T08:39:03.393Z,27.4
2022-10-30T08:40:01.990Z,27.5
2022-10-30T08:41:02.199Z,28.2
2022-10-30T08:42:01.106Z,27.7
2022-10-30T08:43:01.109Z,27.2
2022-10-30T08:44:01.119Z,27
2022-10-30T08:45:01.054Z,27.7
2022-10-30T08:46:01.142Z,26.9
2022-10-30T08:47:02.758Z,26
2022-10-30T08:48:02.092Z,25.4
2022-10-30T08:49:01.717Z,25.1
2022-10-30T08:50:01.179Z,25.1
2022-10-30T08:51:01.170Z,25.1
2022-10-30T08:52:01.797Z,24.9
2022-10-30T08:53:02.314Z,24.9
2022-10-30T08:54:01.566Z,24.9
2022-10-30T08:55:01.279Z,25.4
2022-10-30T08:56:01.745Z,25.3
2022-10-30T08:57:02.159Z,25
2022-10-30T08:58:01.785Z,24.6
2022-10-30T08:59:01.163Z,24.6
2022-10-30T09:00:01.222Z,24.3
2022-10-30T09:01:03.828Z,24.2
2022-10-30T09:02:01.618Z,24.2
2022-10-30T09:03:02.277Z,23.5
2022-10-30T09:04:01.852Z,23.7
2022-10-30T09:05:01.947Z,23.5
2022-10-30T09:06:06.221Z,22.9
2022-10-30T09:07:02.577Z,22.4
2022-10-30T09:08:04.102Z,20.5
2022-10-30T09:09:01.252Z,20
2022-10-30T09:10:01.964Z,20
2022-10-30T09:11:09.275Z,20.5
2022-10-30T09:12:02.357Z,19.9
2022-10-30T09:13:01.941Z,18.8
2022-10-30T09:14:00.675Z,18
2022-10-30T09:15:00.385Z,17.5
2022-10-30T09:16:10.984Z,17.1
2022-10-30T09:17:01.498Z,17.2
2022-10-30T09:18:02.078Z,17.1
2022-10-30T09:19:01.179Z,17.1
2022-10-30T09:20:01.976Z,17.4
2022-10-30T09:21:12.785Z,17.4
2022-10-30T09:22:01.054Z,17.5
2022-10-30T09:23:01.600Z,17.9
2022-10-30T09:24:01.068Z,17.2
2022-10-30T09:25:01.403Z,17.2
2022-10-30T09:26:16.973Z,16.8
2022-10-30T09:27:01.531Z,16.6
2022-10-30T09:28:01.538Z,16.1
2022-10-30T09:29:02.156Z,16.2
2022-10-30T09:30:02.154Z,16
2022-10-30T09:31:01.913Z,15.9
2022-10-30T09:32:02.021Z,15.9
2022-10-30T09:33:02.045Z,14.9
2022-10-30T09:34:01.525Z,14.8
2022-10-30T09:35:00.894Z,14.1
2022-10-30T09:36:01.148Z,13.8
2022-10-30T09:37:01.549Z,13.6
2022-10-30T09:38:01.654Z,13.4
2022-10-30T09:39:01.185Z,13.4
2022-10-30T09:40:01.147Z,13.6
2022-10-30T09:41:00.851Z,13.2
2022-10-30T09:42:01.063Z,13.2
2022-10-30T09:43:01.048Z,13.4
2022-10-30T09:44:01.061Z,13.4
2022-10-30T09:45:27.495Z,13.5
2022-10-30T09:46:01.096Z,13.3
2022-10-30T09:47:02.076Z,13.5
2022-10-30T09:48:01.599Z,13.4
2022-10-30T09:49:01.262Z,12.8
2022-10-30T09:50:01.358Z,13.1
2022-10-30T09:51:02.140Z,12.8
2022-10-30T09:52:01.135Z,12.4
2022-10-30T09:53:01.395Z,12.3
2022-10-30T09:54:01.176Z,12.5
2022-10-30T09:55:01.548Z,12.7
2022-10-30T09:56:02.108Z,12.6
2022-10-30T09:57:02.302Z,12.6
2022-10-30T09:58:01.891Z,12.7
2022-10-30T09:59:01.117Z,13
2022-10-30T10:00:01.312Z,12.9
2022-10-30T10:01:06.113Z,12.6
2022-10-30T10:02:01.608Z,11.9
2022-10-30T10:03:01.860Z,11.6
2022-10-30T10:04:01.375Z,11.9
2022-10-30T10:05:01.121Z,11.8
2022-10-30T10:06:01.121Z,11.9
2022-10-30T10:07:01.138Z,11.8
2022-10-30T10:08:02.808Z,11.4
2022-10-30T10:09:01.849Z,12.4
2022-10-30T10:10:02.322Z,11.7
2022-10-30T10:11:01.564Z,11.6
2022-10-30T10:12:01.166Z,11.6
2022-10-30T10:13:01.636Z,12
2022-10-30T10:14:01.180Z,11.6
2022-10-30T10:15:01.381Z,11.4
2022-10-30T10:16:01.819Z,11.3
2022-10-30T10:17:01.237Z,11.1
2022-10-30T10:18:01.501Z,11.5
2022-10-30T10:19:01.710Z,11.4
2022-10-30T10:20:01.154Z,10.9
2022-10-30T10:21:00.874Z,10.9
2022-10-30T10:22:01.160Z,11
2022-10-30T10:23:00.835Z,10.7
2022-10-30T10:24:00.822Z,10.7
2022-10-30T10:25:00.472Z,10.5
2022-10-30T10:26:00.178Z,10.5
2022-10-30T10:26:59.948Z,10.6
2022-10-30T10:27:59.983Z,10.9
2022-10-30T10:28:59.611Z,10.2
2022-10-30T10:30:01.750Z,10.3
2022-10-30T10:31:01.380Z,10
2022-10-30T10:32:02.543Z,9.9
2022-10-30T10:33:01.588Z,10
2022-10-30T10:34:02.757Z,10.1
2022-10-30T10:35:01.152Z,10.5
2022-10-30T10:36:01.222Z,10.6
2022-10-30T10:37:01.535Z,10.6
2022-10-30T10:38:02.030Z,10.5
2022-10-30T10:39:01.199Z,10.3
2022-10-30T10:40:01.468Z,10.3
2022-10-30T10:41:01.488Z,11.1
2022-10-30T10:42:00.554Z,11.1
2022-10-30T10:43:00.146Z,10.4
2022-10-30T10:43:59.829Z,10.3
2022-10-30T10:45:01.773Z,10.4
2022-10-30T10:46:01.205Z,10.1
2022-10-30T10:47:07.017Z,10.3
2022-10-30T10:48:01.839Z,10.4
2022-10-30T10:49:02.647Z,9.8
2022-10-30T10:50:01.758Z,9.7
2022-10-30T10:51:01.626Z,9.6
2022-10-30T10:52:02.791Z,9.8
2022-10-30T10:53:02.321Z,9.6
2022-10-30T10:54:01.741Z,9.8
2022-10-30T10:55:01.720Z,9.3
2022-10-30T10:56:01.450Z,9.6
2022-10-30T10:57:06.639Z,9.4
2022-10-30T10:58:01.250Z,9
2022-10-30T10:59:08.050Z,9
2022-10-30T11:00:04.361Z,9.1
2022-10-30T11:01:01.369Z,9
2022-10-30T11:02:11.006Z,8.9
2022-10-30T11:03:02.690Z,8.6
2022-10-30T11:04:01.775Z,8.6
2022-10-30T11:05:01.480Z,8.6
2022-10-30T11:06:01.180Z,8.2
2022-10-30T11:07:12.788Z,7.9
2022-10-30T11:08:02.150Z,8.1
2022-10-30T11:09:01.929Z,8.2
2022-10-30T11:10:01.395Z,8.4
2022-10-30T11:11:01.146Z,8.4
2022-10-30T11:12:15.729Z,8.1
2022-10-30T11:13:01.883Z,7.6
2022-10-30T11:14:02.621Z,7.1
2022-10-30T11:15:01.073Z,7
2022-10-30T11:16:01.824Z,7.1
2022-10-30T11:17:01.981Z,6.8
2022-10-30T11:18:01.361Z,6.9
2022-10-30T11:19:03.859Z,6.8
2022-10-30T11:20:01.136Z,6.8
2022-10-30T11:21:01.115Z,6.8
2022-10-30T11:22:00.868Z,6.9
2022-10-30T11:23:01.003Z,7.1
2022-10-30T11:24:01.127Z,7.6
2022-10-30T11:25:01.122Z,7.1
2022-10-30T11:26:01.123Z,7.3
2022-10-30T11:27:01.171Z,7.2
2022-10-30T11:28:01.157Z,7
2022-10-30T11:29:01.545Z,6.9
2022-10-30T11:30:01.994Z,6.9
2022-10-30T11:31:02.483Z,6.9
2022-10-30T11:32:01.051Z,6.7
2022-10-30T11:33:01.384Z,6.2
2022-10-30T11:34:01.137Z,6.2
2022-10-30T11:35:01.154Z,6.7
2022-10-30T11:36:01.093Z,6.5
2022-10-30T11:37:01.216Z,6.6
2022-10-30T11:38:01.673Z,6.8
2022-10-30T11:39:08.027Z,6.4
2022-10-30T11:40:01.354Z,6.3
2022-10-30T11:41:01.153Z,5.7
2022-10-30T11:42:03.979Z,5.7
2022-10-30T11:43:03.858Z,5.8
2022-10-30T11:44:01.138Z,5.5
2022-10-30T11:45:01.795Z,5.4
2022-10-30T11:46:01.859Z,4.9
2022-10-30T11:47:01.067Z,5.1
2022-10-30T11:48:03.098Z,5.2
2022-10-30T11:49:01.066Z,5.4
2022-10-30T11:50:01.268Z,5
2022-10-30T11:51:01.869Z,4.9
2022-10-30T11:52:01.126Z,5.1
2022-10-30T11:53:01.105Z,5.2
2022-10-30T11:54:01.106Z,5.6
2022-10-30T11:55:01.109Z,5.4
2022-10-30T11:56:01.122Z,5.2
2022-10-30T11:57:01.116Z,4.9
2022-10-30T11:58:02.100Z,5
2022-10-30T11:59:01.391Z,4.9
2022-10-30T12:00:05.315Z,4.6
2022-10-30T12:01:01.163Z,4.4
2022-10-30T12:02:01.446Z,4.2
2022-10-30T12:03:01.558Z,4.4
2022-10-30T12:04:01.401Z,4.4
2022-10-30T12:05:01.165Z,4.5
2022-10-30T12:06:01.935Z,4.8
2022-10-30T12:07:01.662Z,4.8
2022-10-30T12:08:01.090Z,4.9
2022-10-30T12:09:01.049Z,5.1
2022-10-30T12:10:01.119Z,5.1
2022-10-30T12:11:01.071Z,5.4
2022-10-30T12:12:05.842Z,5
2022-10-30T12:13:01.577Z,4.5
2022-10-30T12:14:01.128Z,4.6
2022-10-30T12:15:01.141Z,4.5
2022-10-30T12:16:01.143Z,4.6
2022-10-30T12:17:01.053Z,4.6
2022-10-30T12:18:01.065Z,4.8
2022-10-30T12:19:01.457Z,4.8
2022-10-30T12:20:01.089Z,5
2022-10-30T12:21:01.076Z,4.7
2022-10-30T12:22:03.037Z,4.4
2022-10-30T12:23:02.010Z,3.8
2022-10-30T12:24:01.652Z,3.7
2022-10-30T12:25:01.898Z,3.8
2022-10-30T12:26:01.971Z,3.9
2022-10-30T12:27:01.466Z,3.9
2022-10-30T12:28:01.564Z,4.1
2022-10-30T12:29:01.363Z,3.9
2022-10-30T12:30:09.614Z,4.4
2022-10-30T12:31:01.123Z,4.2
2022-10-30T12:32:01.383Z,4.5
2022-10-30T12:33:05.374Z,5.2
2022-10-30T12:34:01.450Z,5.3
2022-10-30T12:35:01.344Z,4.4
2022-10-30T12:36:01.407Z,3.9
2022-10-30T12:37:01.466Z,3.9
2022-10-30T12:38:07.362Z,3.9
2022-10-30T12:39:01.590Z,3.8
2022-10-30T12:40:02.651Z,3.9
2022-10-30T12:41:01.291Z,3.9
2022-10-30T12:42:01.916Z,3.9
2022-10-30T12:43:10.056Z,3.9
2022-10-30T12:44:01.251Z,4.2
2022-10-30T12:45:01.437Z,4.4
2022-10-30T12:46:01.488Z,4.7
2022-10-30T12:47:01.151Z,4.4
2022-10-30T12:48:13.559Z,4.2
2022-10-30T12:49:01.070Z,3.9
2022-10-30T12:50:01.278Z,3.8
2022-10-30T12:51:01.061Z,3.7
2022-10-30T12:52:01.445Z,3.7
2022-10-30T12:53:15.164Z,3.6
2022-10-30T12:54:02.102Z,3.3
2022-10-30T12:55:01.330Z,3.2
2022-10-30T12:56:01.486Z,2.9
2022-10-30T12:57:02.229Z,2.5
2022-10-30T12:58:16.856Z,2.3
2022-10-30T12:59:02.030Z,2
2022-10-30T13:00:01.882Z,2.1
2022-10-30T13:01:00.962Z,2.4
2022-10-30T13:02:01.839Z,2.5
2022-10-30T13:03:01.973Z,2.8
2022-10-30T13:04:01.185Z,2.9
2022-10-30T13:05:01.279Z,3
2022-10-30T13:06:01.110Z,2.7
2022-10-30T13:07:01.461Z,2.8
2022-10-30T13:08:02.365Z,2.9
2022-10-30T13:09:01.689Z,3
2022-10-30T13:10:01.133Z,3.2
2022-10-30T13:11:01.080Z,3.4
2022-10-30T13:12:01.099Z,2.8
2022-10-30T13:13:01.049Z,2.1
2022-10-30T13:14:01.157Z,1.4
2022-10-30T13:15:01.151Z,1.3
2022-10-30T13:16:01.901Z,1.5
2022-10-30T13:17:01.241Z,1.3
2022-10-30T13:18:01.776Z,1.1
2022-10-30T13:19:02.409Z,1.3
2022-10-30T13:20:01.577Z,1.6
2022-10-30T13:21:01.160Z,1.8
2022-10-30T13:22:01.865Z,1.9
2022-10-30T13:23:02.404Z,2.1
2022-10-30T13:24:04.987Z,2.3
2022-10-30T13:25:03.951Z,2.7
2022-10-30T13:26:01.097Z,2.8
2022-10-30T13:27:01.110Z,2.5
2022-10-30T13:28:01.124Z,2.3
2022-10-30T13:29:01.170Z,2.4